Time;durP1;ratioP1;P1;durP2;ratioP2;P2;SDS_P1;SDS_P2;PMS_P1;PMS_P2;Temp;Humidity;BMP_temperature;BMP_pressure;BME280_temperature;BME280_humidity;BME280_pressure;Samples;Min_cycle;Max_cycle;Signal;HPM_P1;HPM_P2
2021/12/10 00:01:43;;;;;;;69.30;33.20;;;4.60;99.90;;;;;;6188497;23;20562;-84
2021/12/10 00:04:11;;;;;;;67.05;30.30;;;4.50;99.90;;;;;;6164029;23;20021;-84
2021/12/10 00:06:52;;;;;;;78.28;33.67;;;4.50;99.90;;;;;;6188559;23;20025;-84
2021/12/10 00:09:27;;;;;;;62.90;31.13;;;4.50;99.90;;;;;;6188969;23;20472;-84
2021/12/10 00:12:03;;;;;;;76.75;33.13;;;4.50;99.90;;;;;;6192589;23;20048;-85
2021/12/10 00:14:31;;;;;;;;;;;4.50;99.90;;;;;;6166446;23;20060;-85
2021/12/10 00:16:59;;;;;;;69.97;30.88;;;4.50;99.90;;;;;;6164283;23;19915;-85
2021/12/10 00:19:38;;;;;;;65.57;30.73;;;4.50;99.90;;;;;;6188785;23;20071;-84
2021/12/10 00:22:16;;;;;;;62.15;30.58;;;4.50;99.90;;;;;;6187818;23;20020;-84
2021/12/10 00:24:51;;;;;;;71.35;31.65;;;4.50;99.90;;;;;;6188831;23;20352;-85
2021/12/10 00:27:28;;;;;;;55.80;29.35;;;4.50;99.90;;;;;;6163146;23;20021;-84
2021/12/10 00:30:04;;;;;;;68.07;29.58;;;4.50;99.90;;;;;;6163687;23;20025;-85
2021/12/10 00:32:35;;;;;;;66.63;29.48;;;4.50;99.90;;;;;;6188806;23;20013;-84
2021/12/10 00:35:06;;;;;;;58.83;28.10;;;4.50;99.90;;;;;;6163876;23;20107;-84
2021/12/10 00:37:32;;;;;;;55.17;27.13;;;4.50;99.90;;;;;;6164256;23;20025;-84
2021/12/10 00:40:09;;;;;;;62.10;30.80;;;4.50;99.90;;;;;;6188340;23;20079;-84
2021/12/10 00:42:56;;;;;;;56.05;27.02;;;4.50;99.90;;;;;;6188260;23;20023;-86
2021/12/10 00:45:40;;;;;;;51.50;25.23;;;4.50;99.90;;;;;;6215343;23;20467;-84
2021/12/10 00:48:07;;;;;;;48.47;23.63;;;4.50;99.90;;;;;;6188025;23;20054;-84
2021/12/10 00:50:42;;;;;;;43.53;23.40;;;4.50;99.90;;;;;;6187673;23;20127;-84
2021/12/10 00:53:14;;;;;;;46.22;22.25;;;4.50;99.90;;;;;;6166394;23;20200;-85
2021/12/10 00:55:40;;;;;;;51.50;24.15;;;4.50;99.90;;;;;;6188146;23;20017;-85
2021/12/10 00:58:06;;;;;;;45.25;23.92;;;4.50;99.90;;;;;;6187994;23;20456;-85
2021/12/10 01:00:42;;;;;;;46.78;23.10;;;4.50;99.90;;;;;;6188055;23;20091;-85
2021/12/10 01:03:11;;;;;;;48.92;21.65;;;4.50;99.90;;;;;;6163012;23;20416;-84
2021/12/10 01:05:38;;;;;;;44.38;23.13;;;4.50;99.90;;;;;;6188594;23;20031;-84
2021/12/10 01:08:05;;;;;;;47.40;21.15;;;4.50;99.90;;;;;;6188098;23;20021;-84
2021/12/10 01:10:40;;;;;;;38.38;20.13;;;4.40;99.90;;;;;;6188157;23;20060;-84
2021/12/10 01:13:10;;;;;;;44.60;21.67;;;4.40;99.90;;;;;;6188089;23;20020;-84
2021/12/10 01:16:10;;;;;;;41.72;20.90;;;4.40;99.90;;;;;;6188495;23;20464;-84
2021/12/10 01:27:27;;;;;;;48.60;20.70;;;4.30;99.90;;;;;;6129690;23;20346;-85
2021/12/10 01:29:57;;;;;;;45.05;20.88;;;4.40;99.90;;;;;;6134590;23;20056;-84
2021/12/10 01:32:25;;;;;;;41.25;20.30;;;4.40;99.90;;;;;;6105016;23;20029;-85
2021/12/10 01:34:57;;;;;;;48.85;21.75;;;4.40;99.90;;;;;;6126738;23;20022;-85
2021/12/10 01:37:25;;;;;;;43.95;19.40;;;4.40;99.90;;;;;;6126647;23;20017;-85
2021/12/10 01:39:51;;;;;;;50.22;22.13;;;4.40;99.90;;;;;;6126903;23;20026;-85
2021/12/10 01:42:37;;;;;;;46.22;19.92;;;4.40;99.90;;;;;;6152379;23;20481;-85
2021/12/10 01:45:10;;;;;;;34.67;19.20;;;4.40;99.90;;;;;;6102979;23;20032;-86
2021/12/10 01:47:37;;;;;;;40.47;20.65;;;4.40;99.90;;;;;;6127369;23;20037;-84
2021/12/10 01:50:06;;;;;;;49.05;21.30;;;4.40;99.90;;;;;;6127268;23;20473;-85
2021/12/10 01:52:32;;;;;;;44.00;22.88;;;4.50;99.90;;;;;;6127046;23;20487;-84
2021/12/10 01:55:01;;;;;;;50.15;22.15;;;4.40;99.90;;;;;;6102685;23;20022;-84
2021/12/10 01:57:32;;;;;;;47.13;20.98;;;4.40;99.90;;;;;;6127014;23;20032;-84
2021/12/10 01:59:58;;;;;;;42.22;21.60;;;4.40;99.90;;;;;;6102474;23;20048;-85
2021/12/10 02:02:30;;;;;;;53.05;21.48;;;4.40;99.90;;;;;;6127646;23;20021;-84
2021/12/10 02:04:56;;;;;;;44.10;21.30;;;4.30;99.90;;;;;;6176213;23;20017;-85
2021/12/10 02:07:26;;;;;;;37.28;19.92;;;4.30;99.90;;;;;;6187458;23;20541;-85
2021/12/10 02:09:52;;;;;;;59.10;24.65;;;4.20;99.90;;;;;;6164049;23;20025;-84
2021/12/10 02:12:19;;;;;;;46.60;23.05;;;4.10;99.90;;;;;;6193519;23;20032;-84
2021/12/10 02:14:57;;;;;;;42.65;22.33;;;4.10;99.90;;;;;;6190956;23;20021;-84
2021/12/10 02:17:26;;;;;;;41.85;22.02;;;4.00;99.90;;;;;;6187179;23;20056;-85
2021/12/10 02:20:03;;;;;;;53.35;22.90;;;4.00;99.90;;;;;;6187610;23;20469;-85
2021/12/10 02:22:39;;;;;;;50.42;21.52;;;4.00;99.90;;;;;;6187008;23;20040;-85
2021/12/10 02:25:16;;;;;;;45.00;20.90;;;4.00;99.90;;;;;;6164406;23;20096;-85
2021/12/10 02:27:42;;;;;;;46.67;22.42;;;4.00;99.90;;;;;;6185297;23;20029;-84
2021/12/10 02:30:12;;;;;;;45.13;22.67;;;4.00;99.90;;;;;;6187255;23;20032;-85
2021/12/10 02:32:43;;;;;;;42.70;21.30;;;4.00;99.90;;;;;;6187442;23;20028;-85
2021/12/10 02:35:18;;;;;;;42.65;21.05;;;4.00;99.90;;;;;;6187231;23;20020;-84
2021/12/10 02:37:51;;;;;;;44.70;21.48;;;4.00;99.90;;;;;;6162823;23;20480;-85
2021/12/10 02:40:20;;;;;;;46.35;22.33;;;4.00;99.90;;;;;;6187329;23;20035;-85
2021/12/10 02:43:00;;;;;;;43.88;21.52;;;4.00;99.90;;;;;;6164663;23;20087;-85
2021/12/10 02:45:36;;;;;;;44.50;20.95;;;4.00;99.90;;;;;;6191626;23;20020;-85
2021/12/10 02:48:08;;;;;;;45.83;19.27;;;4.00;99.90;;;;;;6191418;23;20024;-84
2021/12/10 02:50:39;;;;;;;41.50;18.58;;;4.10;99.90;;;;;;6193436;23;20020;-86
2021/12/10 02:53:08;;;;;;;37.50;19.20;;;4.00;99.90;;;;;;6189352;23;20456;-85
2021/12/10 02:55:35;;;;;;;38.65;18.25;;;4.00;99.90;;;;;;6162612;23;20483;-85
2021/12/10 02:58:06;;;;;;;38.35;20.17;;;4.10;99.90;;;;;;6186878;23;20024;-84
2021/12/10 03:00:47;;;;;;;40.38;19.00;;;4.10;99.90;;;;;;6187452;23;20021;-83
2021/12/10 03:03:13;;;;;;;42.50;18.40;;;4.10;99.90;;;;;;6187151;23;20407;-84
2021/12/10 03:05:39;;;;;;;31.40;17.80;;;4.10;99.90;;;;;;6187326;23;20025;-85
2021/12/10 03:08:05;;;;;;;35.78;17.30;;;4.10;99.90;;;;;;6187221;23;20024;-84
2021/12/10 03:10:32;;;;;;;35.05;16.45;;;4.10;99.90;;;;;;6187090;23;20020;-83
2021/12/10 03:12:59;;;;;;;31.58;16.33;;;4.10;99.90;;;;;;6162448;23;20024;-84
2021/12/10 03:15:28;;;;;;;38.65;16.63;;;4.10;99.90;;;;;;6187645;23;20021;-85
2021/12/10 03:17:55;;;;;;;37.78;16.02;;;4.10;99.90;;;;;;6186927;23;20082;-84
2021/12/10 03:20:25;;;;;;;36.28;16.95;;;4.10;99.90;;;;;;6187892;23;20034;-85
2021/12/10 03:22:52;;;;;;;26.63;14.82;;;4.10;99.90;;;;;;6187123;23;20074;-85
2021/12/10 03:25:23;;;;;;;33.88;16.05;;;4.10;99.90;;;;;;6187636;23;20460;-85
2021/12/10 03:27:53;;;;;;;31.90;15.20;;;4.10;99.90;;;;;;6158776;23;20457;-84
2021/12/10 03:30:24;;;;;;;38.22;16.00;;;4.20;99.90;;;;;;6184868;23;20032;-86
2021/12/10 03:32:59;;;;;;;28.55;15.57;;;4.10;99.90;;;;;;6177743;23;20032;-84
2021/12/10 03:35:29;;;;;;;32.97;17.73;;;4.10;99.90;;;;;;6185582;23;20091;-85
2021/12/10 03:37:57;;;;;;;43.55;15.38;;;4.10;99.90;;;;;;6184240;23;20025;-85
2021/12/10 03:40:23;;;;;;;34.40;15.43;;;4.20;99.90;;;;;;6184327;23;20468;-85
2021/12/10 03:42:50;;;;;;;34.58;15.32;;;4.10;99.90;;;;;;6189332;23;20031;-85
2021/12/10 03:45:17;;;;;;;28.48;14.73;;;4.10;99.90;;;;;;6163928;23;20020;-85
2021/12/10 03:47:44;;;;;;;35.35;17.38;;;4.20;99.90;;;;;;6188997;23;20032;-85
2021/12/10 03:50:12;;;;;;;36.83;17.63;;;4.20;99.90;;;;;;6214343;23;20027;-85
2021/12/10 03:52:39;;;;;;;41.22;15.35;;;4.20;99.90;;;;;;6214393;23;20028;-85
2021/12/10 03:55:06;;;;;;;39.30;16.98;;;4.20;99.90;;;;;;6189451;23;20021;-85
2021/12/10 03:57:33;;;;;;;31.38;15.73;;;4.10;99.90;;;;;;6214866;23;20054;-84
2021/12/10 04:00:07;;;;;;;31.08;15.25;;;4.20;99.90;;;;;;6164093;23;20021;-86
2021/12/10 04:02:33;;;;;;;28.63;16.85;;;4.10;99.90;;;;;;6165077;23;20024;-85
2021/12/10 04:04:59;;;;;;;34.90;16.17;;;4.10;99.90;;;;;;6196260;23;20016;-85
2021/12/10 04:07:26;;;;;;;30.50;15.02;;;4.20;99.90;;;;;;6167837;23;20031;-85
2021/12/10 04:09:54;;;;;;;30.45;15.65;;;4.20;99.90;;;;;;6192111;23;20021;-84
2021/12/10 04:12:21;;;;;;;40.10;18.40;;;4.20;99.90;;;;;;6163495;23;20476;-86
2021/12/10 04:14:48;;;;;;;35.53;16.35;;;4.10;99.90;;;;;;6187899;23;20028;-84
2021/12/10 04:17:18;;;;;;;37.58;17.33;;;4.20;99.90;;;;;;6163489;23;20534;-85
2021/12/10 04:19:45;;;;;;;32.65;16.55;;;4.10;99.90;;;;;;6188849;23;20360;-85
2021/12/10 04:22:13;;;;;;;25.35;14.50;;;4.10;99.90;;;;;;6163618;23;20467;-85
2021/12/10 04:24:47;;;;;;;34.97;15.70;;;4.10;99.90;;;;;;6188230;23;20028;-85
2021/12/10 04:27:21;;;;;;;29.90;15.60;;;4.00;99.90;;;;;;6213197;22;20021;-85
2021/12/10 04:29:47;;;;;;;34.47;15.10;;;4.00;99.90;;;;;;6188910;23;20433;-85
2021/12/10 04:32:14;;;;;;;37.13;14.98;;;4.00;99.90;;;;;;6189869;23;20468;-86
2021/12/10 04:34:40;;;;;;;44.53;17.25;;;4.00;99.90;;;;;;6188321;23;20024;-86
2021/12/10 04:37:08;;;;;;;30.00;13.80;;;4.00;99.90;;;;;;6188378;23;20020;-85
2021/12/10 04:39:37;;;;;;;35.47;14.63;;;4.00;99.90;;;;;;6188282;23;20016;-85
2021/12/10 04:42:09;;;;;;;32.63;15.05;;;4.00;99.90;;;;;;6189303;23;20055;-85
2021/12/10 04:44:35;;;;;;;32.50;15.73;;;3.90;99.90;;;;;;6168512;23;20028;-85
2021/12/10 04:47:01;;;;;;;32.83;15.93;;;4.00;99.90;;;;;;6195376;23;20088;-84
2021/12/10 04:49:28;;;;;;;29.10;16.02;;;4.00;99.90;;;;;;6190382;23;20111;-84
2021/12/10 04:51:57;;;;;;;42.55;17.77;;;3.90;99.90;;;;;;6188489;23;20048;-85
2021/12/10 04:54:24;;;;;;;27.38;14.48;;;3.90;99.90;;;;;;6188258;23;20064;-84
2021/12/10 04:56:52;;;;;;;30.77;15.75;;;3.90;99.90;;;;;;6188323;23;20038;-85
2021/12/10 04:59:20;;;;;;;32.42;17.52;;;3.90;99.90;;;;;;6188373;23;20028;-84
2021/12/10 05:01:48;;;;;;;33.90;15.75;;;3.90;99.90;;;;;;6188011;23;20020;-85
2021/12/10 05:04:17;;;;;;;29.33;15.18;;;3.80;99.90;;;;;;6187736;23;20028;-85
2021/12/10 05:06:42;;;;;;;31.95;15.18;;;3.80;99.90;;;;;;6163504;23;20099;-85
2021/12/10 05:09:11;;;;;;;31.23;16.23;;;3.80;99.90;;;;;;6188094;23;20056;-84
2021/12/10 05:11:38;;;;;;;30.25;16.33;;;3.80;99.90;;;;;;6187684;23;20028;-85
2021/12/10 05:14:05;;;;;;;30.20;15.75;;;3.70;99.90;;;;;;6162828;23;20094;-85
2021/12/10 05:16:33;;;;;;;27.83;14.85;;;3.70;99.90;;;;;;6163302;23;20025;-84
2021/12/10 05:19:01;;;;;;;35.63;17.42;;;3.70;99.90;;;;;;6188208;23;20025;-86
2021/12/10 05:21:30;;;;;;;28.88;16.42;;;3.70;99.90;;;;;;6188481;23;20163;-85
2021/12/10 05:23:58;;;;;;;32.88;17.48;;;3.70;99.90;;;;;;6194510;23;20024;-86
2021/12/10 05:26:34;;;;;;;34.97;17.45;;;3.60;99.90;;;;;;6167201;23;20029;-85
2021/12/10 05:29:02;;;;;;;36.40;17.23;;;3.60;99.90;;;;;;6187859;23;20025;-85
2021/12/10 05:31:28;;;;;;;34.72;17.40;;;3.50;99.90;;;;;;6187565;23;20024;-85
2021/12/10 05:33:54;;;;;;;28.67;16.67;;;3.50;99.90;;;;;;6214913;23;20052;-86
2021/12/10 05:36:28;;;;;;;34.78;18.25;;;3.40;99.90;;;;;;6186662;23;20035;-86
2021/12/10 05:38:55;;;;;;;35.22;18.60;;;3.40;99.90;;;;;;6162513;23;20024;-86
2021/12/10 05:41:21;;;;;;;32.67;17.83;;;3.20;99.90;;;;;;6162865;23;20025;-85
2021/12/10 05:43:47;;;;;;;33.47;18.90;;;3.20;99.90;;;;;;6187561;23;20025;-85
2021/12/10 05:46:13;;;;;;;32.53;19.17;;;3.20;99.90;;;;;;6161380;23;20111;-85
2021/12/10 05:48:40;;;;;;;35.17;19.48;;;3.10;99.90;;;;;;6162980;23;20352;-85
2021/12/10 05:51:06;;;;;;;35.28;21.98;;;3.10;99.90;;;;;;6162862;23;20020;-84
2021/12/10 05:53:32;;;;;;;40.50;22.30;;;3.00;99.90;;;;;;6187052;23;20039;-85
2021/12/10 05:56:01;;;;;;;39.88;21.33;;;3.00;99.90;;;;;;6187492;23;20090;-85
2021/12/10 05:58:27;;;;;;;40.05;21.38;;;3.00;99.90;;;;;;6187547;23;20012;-86
2021/12/10 06:01:04;;;;;;;39.10;22.55;;;2.90;99.90;;;;;;6163797;23;20028;-85
2021/12/10 06:03:33;;;;;;;39.15;22.10;;;2.90;99.90;;;;;;6167794;23;20063;-85
2021/12/10 06:05:59;;;;;;;49.67;23.17;;;2.80;99.90;;;;;;6196357;23;20024;-87
2021/12/10 06:08:28;;;;;;;40.13;21.77;;;2.80;99.90;;;;;;6168924;23;20815;-88
2021/12/10 06:11:13;;;;;;;;;;;2.80;99.90;;;;;;6215330;23;20475;-85
2021/12/10 06:13:45;;;;;;;40.92;22.33;;;2.70;99.90;;;;;;6187192;23;19916;-86
2021/12/10 06:16:12;;;;;;;49.47;22.60;;;2.70;99.90;;;;;;6186814;23;20020;-84
2021/12/10 06:18:38;;;;;;;42.78;23.08;;;2.70;99.90;;;;;;6187255;23;20638;-86
2021/12/10 06:21:04;;;;;;;45.28;22.77;;;2.70;99.90;;;;;;6187128;23;20055;-85
2021/12/10 06:23:30;;;;;;;39.72;22.80;;;2.70;99.90;;;;;;6162221;23;20346;-86
2021/12/10 06:25:56;;;;;;;39.42;22.38;;;2.60;99.90;;;;;;6186982;23;20047;-86
2021/12/10 06:28:23;;;;;;;40.58;21.95;;;2.60;99.90;;;;;;6186903;23;20021;-85
2021/12/10 06:30:51;;;;;;;39.08;21.58;;;2.60;99.90;;;;;;6187210;23;20029;-85
2021/12/10 06:33:21;;;;;;;44.05;22.27;;;2.50;99.90;;;;;;6162295;23;20464;-84
2021/12/10 06:35:50;;;;;;;46.67;23.55;;;2.60;99.90;;;;;;6187293;23;20024;-86
2021/12/10 06:38:17;;;;;;;36.85;20.80;;;2.50;99.90;;;;;;6162373;23;20023;-86
2021/12/10 06:40:49;;;;;;;39.45;21.30;;;2.50;99.90;;;;;;6162073;23;20067;-86
2021/12/10 06:43:16;;;;;;;45.10;21.20;;;2.50;99.90;;;;;;6186889;23;20016;-86
2021/12/10 06:45:46;;;;;;;50.20;24.20;;;2.50;99.90;;;;;;6167516;23;20024;-86
2021/12/10 06:48:20;;;;;;;37.90;21.92;;;2.50;99.90;;;;;;6194880;23;20352;-85
2021/12/10 06:50:55;;;;;;;46.47;23.25;;;2.50;99.90;;;;;;6187204;23;20036;-84
2021/12/10 06:53:23;;;;;;;44.60;22.60;;;2.50;99.90;;;;;;6186083;23;20468;-85
2021/12/10 06:56:00;;;;;;;51.05;24.52;;;2.60;99.90;;;;;;6214447;23;20499;-86
2021/12/10 06:58:31;;;;;;;46.85;24.52;;;2.40;99.90;;;;;;6162328;23;20157;-86
2021/12/10 07:01:12;;;;;;;44.25;22.42;;;2.50;99.90;;;;;;6186916;23;20032;-86
2021/12/10 07:03:40;;;;;;;49.92;23.38;;;2.40;99.90;;;;;;6209342;23;20066;-86
2021/12/10 07:06:07;;;;;;;51.22;24.38;;;2.50;99.90;;;;;;6186004;23;20458;-85
2021/12/10 07:08:35;;;;;;;44.40;23.65;;;2.40;99.90;;;;;;6188251;23;20024;-85
2021/12/10 07:11:02;;;;;;;44.80;24.27;;;2.40;99.90;;;;;;6214260;23;20016;-85
2021/12/10 07:13:28;;;;;;;40.90;23.13;;;2.40;99.90;;;;;;6189033;23;20032;-86
2021/12/10 07:16:04;;;;;;;44.95;22.92;;;2.40;99.90;;;;;;6188831;23;20027;-84
2021/12/10 07:18:30;;;;;;;39.40;24.42;;;2.40;99.90;;;;;;6188740;23;20025;-85
2021/12/10 07:20:56;;;;;;;42.92;24.02;;;2.40;99.90;;;;;;6189150;23;20056;-84
2021/12/10 07:23:23;;;;;;;45.22;25.13;;;2.40;99.90;;;;;;6163819;23;20099;-85
2021/12/10 07:25:50;;;;;;;44.40;24.58;;;2.40;99.90;;;;;;6188951;23;20029;-83
2021/12/10 07:28:18;;;;;;;45.05;23.95;;;2.30;99.90;;;;;;6159391;23;20354;-83
2021/12/10 07:30:51;;;;;;;41.00;23.27;;;2.40;99.90;;;;;;6168995;23;20021;-85
2021/12/10 07:33:19;;;;;;;45.72;26.00;;;2.30;99.90;;;;;;6161361;23;20020;-83
2021/12/10 07:35:47;;;;;;;46.88;25.05;;;2.30;99.90;;;;;;6134407;23;20021;-83
2021/12/10 07:38:13;;;;;;;46.75;25.52;;;2.20;99.90;;;;;;6133964;23;20021;-83
2021/12/10 07:40:39;;;;;;;47.08;24.60;;;2.20;99.90;;;;;;6159308;23;20024;-83
2021/12/10 07:43:06;;;;;;;47.15;24.08;;;2.20;99.90;;;;;;6159051;23;20021;-84
2021/12/10 07:45:33;;;;;;;52.13;26.02;;;2.20;99.90;;;;;;6132584;23;20021;-83
2021/12/10 07:48:03;;;;;;;44.72;24.00;;;2.10;99.90;;;;;;6180396;23;20430;-85
2021/12/10 07:50:50;;;;;;;41.05;23.60;;;2.10;99.90;;;;;;6160936;23;20029;-84
2021/12/10 07:53:19;;;;;;;42.42;23.67;;;2.20;99.90;;;;;;6135078;23;20079;-84
2021/12/10 07:55:45;;;;;;;40.22;23.17;;;2.10;99.90;;;;;;6180991;23;20083;-84
2021/12/10 07:58:11;;;;;;;40.47;23.70;;;2.10;99.90;;;;;;6134205;23;20025;-84
2021/12/10 08:00:40;;;;;;;44.42;21.45;;;2.20;99.90;;;;;;6158675;23;20032;-84
2021/12/10 08:03:08;;;;;;;43.25;22.27;;;2.10;99.90;;;;;;6159170;23;20021;-84
2021/12/10 08:05:34;;;;;;;37.88;21.45;;;2.20;99.90;;;;;;6160210;23;20025;-86
2021/12/10 08:08:00;;;;;;;41.20;20.92;;;2.10;99.90;;;;;;6160069;23;20025;-84
2021/12/10 08:10:29;;;;;;;38.22;20.15;;;2.20;99.90;;;;;;6168191;23;20028;-84
2021/12/10 08:12:55;;;;;;;32.28;19.08;;;2.20;99.90;;;;;;6167722;23;20017;-85
2021/12/10 08:15:22;;;;;;;32.90;19.38;;;2.20;99.90;;;;;;6159684;23;20025;-84
2021/12/10 08:17:57;;;;;;;30.13;18.38;;;2.20;99.90;;;;;;6159111;23;20079;-84
2021/12/10 08:20:32;;;;;;;33.20;18.92;;;2.20;99.90;;;;;;6158650;23;20025;-85
2021/12/10 08:23:05;;;;;;;31.65;17.83;;;2.20;99.90;;;;;;6158913;23;20060;-85
2021/12/10 08:25:32;;;;;;;30.83;15.80;;;2.20;99.90;;;;;;6134210;23;20025;-85
2021/12/10 08:27:59;;;;;;;30.05;17.05;;;2.30;99.90;;;;;;6184058;23;20029;-84
2021/12/10 08:30:26;;;;;;;30.15;17.00;;;2.20;99.90;;;;;;6188280;23;20463;-85
2021/12/10 08:32:55;;;;;;;28.63;16.33;;;2.30;99.90;;;;;;6163513;23;20020;-85
2021/12/10 08:35:29;;;;;;;32.70;17.02;;;2.40;99.90;;;;;;6215383;23;20020;-84
2021/12/10 08:37:56;;;;;;;32.15;17.17;;;2.40;99.90;;;;;;6187280;23;20027;-84
2021/12/10 08:40:29;;;;;;;30.23;17.48;;;2.40;99.90;;;;;;6188152;23;20017;-85
2021/12/10 08:42:55;;;;;;;32.95;16.48;;;2.50;99.90;;;;;;6188421;23;20392;-85
2021/12/10 08:45:23;;;;;;;33.00;16.60;;;2.50;99.90;;;;;;6188187;23;20150;-85
2021/12/10 08:47:56;;;;;;;30.10;17.50;;;2.50;99.90;;;;;;6163377;23;20032;-84
2021/12/10 08:50:24;;;;;;;30.63;15.38;;;2.60;99.90;;;;;;6191883;23;20079;-85
2021/12/10 08:52:54;;;;;;;30.35;16.17;;;2.60;99.90;;;;;;6192877;23;20020;-84
2021/12/10 08:55:21;;;;;;;30.50;16.25;;;2.60;99.90;;;;;;6189984;23;20027;-83
2021/12/10 08:57:48;;;;;;;29.58;16.80;;;2.70;99.90;;;;;;6163584;23;20024;-84
2021/12/10 09:00:16;;;;;;;31.98;15.25;;;2.70;99.90;;;;;;6188105;23;20060;-84
2021/12/10 09:02:42;;;;;;;25.13;14.10;;;2.70;99.90;;;;;;6188064;23;20025;-84
2021/12/10 09:05:16;;;;;;;26.23;14.50;;;2.70;99.90;;;;;;6163232;23;20491;-85
2021/12/10 09:07:44;;;;;;;21.58;12.88;;;2.80;99.90;;;;;;6162712;23;20023;-84
2021/12/10 09:10:13;;;;;;;25.60;13.55;;;2.80;99.90;;;;;;6162771;23;20459;-84
2021/12/10 09:12:40;;;;;;;28.80;14.70;;;2.80;99.90;;;;;;6188173;23;20348;-85
2021/12/10 09:15:09;;;;;;;26.55;14.85;;;2.80;99.90;;;;;;6187343;23;20032;-85
2021/12/10 09:17:39;;;;;;;25.73;15.32;;;2.90;99.90;;;;;;6187983;23;20079;-85
2021/12/10 09:20:20;;;;;;;27.00;13.73;;;2.90;99.90;;;;;;6187661;23;20063;-85
2021/12/10 09:22:47;;;;;;;26.33;12.95;;;3.00;99.90;;;;;;6161877;23;20480;-85
2021/12/10 09:25:25;;;;;;;23.08;13.25;;;3.10;99.90;;;;;;6215655;23;20066;-84
2021/12/10 09:27:52;;;;;;;24.13;12.75;;;3.20;99.90;;;;;;6127810;23;20639;-84
2021/12/10 09:30:47;;;;;;;19.17;11.23;;;3.30;99.90;;;;;;6151662;23;20031;-84
2021/12/10 09:33:13;;;;;;;19.97;10.47;;;3.30;99.90;;;;;;6127223;23;20457;-86
2021/12/10 09:35:40;;;;;;;23.42;12.15;;;3.40;99.90;;;;;;6156384;23;20425;-84
2021/12/10 09:38:13;;;;;;;21.90;10.40;;;3.50;99.90;;;;;;6110758;23;20033;-82
2021/12/10 09:40:42;;;;;;;21.13;11.48;;;3.50;99.90;;;;;;6159747;23;20029;-85
2021/12/10 09:43:11;;;;;;;17.15;9.90;;;3.80;99.90;;;;;;6127375;23;20121;-84
2021/12/10 09:45:39;;;;;;;19.38;10.38;;;3.90;99.90;;;;;;6151440;23;20097;-85
2021/12/10 09:48:07;;;;;;;22.73;10.93;;;4.10;99.90;;;;;;6126834;23;20032;-84
2021/12/10 09:50:39;;;;;;;19.77;11.60;;;4.30;99.90;;;;;;6102467;23;20021;-84
2021/12/10 09:53:09;;;;;;;18.50;9.75;;;4.50;99.90;;;;;;6151646;23;20029;-84
2021/12/10 09:55:46;;;;;;;19.95;9.23;;;4.80;99.90;;;;;;6128994;23;20061;-84
2021/12/10 09:58:12;;;;;;;18.13;9.98;;;4.80;99.90;;;;;;6163879;23;20047;-84
2021/12/10 10:01:03;;;;;;;25.95;10.07;;;4.90;99.90;;;;;;6185982;23;20025;-84
2021/12/10 10:03:33;;;;;;;22.35;10.05;;;5.20;99.90;;;;;;6161980;23;20444;-85
2021/12/10 10:05:59;;;;;;;17.65;9.30;;;5.60;99.90;;;;;;6187735;23;20349;-84
2021/12/10 10:08:27;;;;;;;16.63;9.57;;;5.80;99.90;;;;;;6187661;23;20035;-84
2021/12/10 10:11:07;;;;;;;22.67;9.25;;;6.00;99.90;;;;;;6162483;23;20025;-85
2021/12/10 10:13:41;;;;;;;13.77;8.00;;;5.80;99.90;;;;;;6187323;23;20031;-84
2021/12/10 10:16:12;;;;;;;15.65;8.48;;;6.00;99.90;;;;;;6187608;23;20456;-85
2021/12/10 10:18:41;;;;;;;18.95;8.43;;;6.40;99.90;;;;;;6164417;23;20029;-84
2021/12/10 10:21:14;;;;;;;15.82;7.22;;;6.40;99.90;;;;;;6169409;23;20103;-85
2021/12/10 10:23:43;;;;;;;17.60;8.00;;;6.50;99.90;;;;;;6191061;23;20031;-84
2021/12/10 10:26:17;;;;;;;13.43;7.47;;;6.90;99.90;;;;;;6186837;23;20017;-83
2021/12/10 10:28:44;;;;;;;25.77;12.43;;;7.20;99.90;;;;;;6162467;23;20025;-83
2021/12/10 10:31:29;;;;;;;22.58;11.15;;;7.00;99.90;;;;;;6214744;23;20051;-85
2021/12/10 10:33:58;;;;;;;17.00;9.50;;;6.50;99.90;;;;;;6187594;23;20074;-85
2021/12/10 10:36:28;;;;;;;15.02;8.40;;;6.20;99.90;;;;;;6162367;23;20040;-84
2021/12/10 10:39:10;;;;;;;11.95;7.53;;;5.80;99.90;;;;;;6187710;23;20348;-85
2021/12/10 10:41:37;;;;;;;13.65;7.63;;;5.70;99.90;;;;;;6163091;23;20020;-84
2021/12/10 10:44:05;;;;;;;17.15;9.75;;;5.70;99.90;;;;;;6186473;23;20031;-84
2021/12/10 10:46:32;;;;;;;16.23;9.40;;;5.70;99.90;;;;;;6163162;23;20054;-84
2021/12/10 10:48:58;;;;;;;15.10;7.70;;;5.70;99.90;;;;;;6187350;23;20036;-85
2021/12/10 10:51:32;;;;;;;18.77;7.85;;;5.80;99.90;;;;;;6162647;23;20027;-84
2021/12/10 10:54:00;;;;;;;15.68;7.63;;;5.90;99.90;;;;;;6162573;23;20128;-84
2021/12/10 10:56:33;;;;;;;14.00;7.25;;;6.10;99.90;;;;;;6187258;23;20052;-84
2021/12/10 10:59:09;;;;;;;14.02;7.20;;;6.20;99.90;;;;;;6187001;23;20039;-84
2021/12/10 11:01:57;;;;;;;13.57;7.43;;;6.20;99.90;;;;;;6161216;23;20032;-84
2021/12/10 11:04:28;;;;;;;12.77;7.13;;;6.20;99.90;;;;;;6163604;23;20021;-85
2021/12/10 11:07:16;;;;;;;13.65;7.35;;;6.50;99.90;;;;;;6212924;23;20030;-85
2021/12/10 11:09:49;;;;;;;14.77;7.82;;;6.90;99.90;;;;;;6168238;23;20016;-85
2021/12/10 11:12:20;;;;;;;13.48;6.45;;;7.20;99.90;;;;;;6162667;23;20024;-84
2021/12/10 11:14:54;;;;;;;12.27;8.10;;;7.50;99.90;;;;;;6162606;23;20052;-85
2021/12/10 11:17:25;;;;;;;13.23;6.60;;;7.70;99.90;;;;;;6187200;23;20040;-85
2021/12/10 11:20:03;;;;;;;13.88;6.70;;;7.90;99.90;;;;;;6187040;23;20491;-83
2021/12/10 11:22:30;;;;;;;13.43;6.45;;;8.10;99.90;;;;;;6187205;23;20024;-85
2021/12/10 11:25:05;;;;;;;11.32;6.30;;;8.50;99.90;;;;;;6186735;23;20359;-84
2021/12/10 11:27:37;;;;;;;13.35;5.93;;;9.00;99.90;;;;;;6161554;23;20448;-84
2021/12/10 11:30:02;;;;;;;12.52;6.05;;;9.60;99.90;;;;;;6187019;23;20452;-85
2021/12/10 11:33:01;;;;;;;13.52;5.95;;;9.80;99.90;;;;;;6185814;23;20125;-84
2021/12/10 11:35:38;;;;;;;10.52;5.78;;;10.20;99.90;;;;;;6187152;23;20021;-84
2021/12/10 11:38:28;;;;;;;10.77;4.95;;;10.30;99.90;;;;;;6162335;23;20025;-84
2021/12/10 11:41:03;;;;;;;11.45;5.63;;;10.50;99.20;;;;;;6187194;23;20017;-84
2021/12/10 11:44:07;;;;;;;8.32;5.38;;;10.50;99.90;;;;;;6186880;23;20103;-84
2021/12/10 11:47:39;;;;;;;9.77;5.70;;;10.50;99.90;;;;;;6186912;23;20456;-84
2021/12/10 11:49:39;;;;;;;9.55;5.45;;;10.50;99.90;;;;;;6181308;23;20017;-84
2021/12/10 11:52:25;;;;;;;14.60;6.22;;;10.60;99.90;;;;;;6187045;23;20025;-84
2021/12/10 11:55:08;;;;;;;9.38;5.22;;;10.60;99.70;;;;;;6188286;23;20024;-84
2021/12/10 11:57:43;;;;;;;9.40;5.50;;;10.50;99.90;;;;;;6190775;23;20020;-85
2021/12/10 12:00:14;;;;;;;11.38;5.05;;;10.00;99.90;;;;;;6193390;23;20460;-83
2021/12/10 12:02:53;;;;;;;11.10;4.80;;;9.80;99.90;;;;;;6188371;23;20484;-84
2021/12/10 12:05:27;;;;;;;11.95;6.57;;;9.70;99.90;;;;;;6187597;23;20114;-85
2021/12/10 12:08:01;;;;;;;11.25;6.15;;;9.70;99.90;;;;;;6152610;23;20025;-84
2021/12/10 12:10:37;;;;;;;9.15;5.50;;;9.70;99.90;;;;;;6126584;23;20146;-85
2021/12/10 12:15:53;;;;;;;8.63;4.72;;;10.80;99.90;;;;;;6139771;23;20020;-85
2021/12/10 12:18:41;;;;;;;8.65;4.95;;;11.50;99.90;;;;;;6127840;23;20022;-84
2021/12/10 12:27:05;;;;;;;11.55;5.00;;;13.10;97.00;;;;;;6127253;23;20029;-84
2021/12/10 12:29:56;;;;;;;8.38;4.90;;;13.60;93.70;;;;;;6152659;23;20104;-83
2021/12/10 12:32:31;;;;;;;8.63;4.97;;;14.00;94.30;;;;;;6103441;23;20021;-86
2021/12/10 12:35:21;;;;;;;8.20;4.68;;;14.30;90.30;;;;;;6103468;23;20024;-84
2021/12/10 12:38:05;;;;;;;11.95;5.72;;;14.70;80.50;;;;;;6150865;23;20032;-85
2021/12/10 12:40:34;;;;;;;8.77;4.03;;;15.30;88.80;;;;;;6188817;23;20028;-83
2021/12/10 12:43:04;;;;;;;8.45;4.82;;;15.30;87.10;;;;;;6192829;23;20024;-84
2021/12/10 12:45:31;;;;;;;8.80;5.13;;;15.20;81.10;;;;;;6187872;23;20043;-83
2021/12/10 12:47:58;;;;;;;7.57;4.28;;;15.10;78.30;;;;;;6187341;23;20033;-84
2021/12/10 12:50:31;;;;;;;9.98;4.63;;;14.90;73.70;;;;;;6164053;23;20032;-84
2021/12/10 12:53:13;;;;;;;9.88;4.50;;;14.90;76.00;;;;;;6188311;23;20024;-84
2021/12/10 12:55:59;;;;;;;7.10;3.85;;;14.80;70.80;;;;;;6187742;23;20056;-84
2021/12/10 12:58:57;;;;;;;8.82;4.07;;;14.60;75.30;;;;;;6188660;23;20731;-84
2021/12/10 13:01:30;;;;;;;9.13;4.25;;;14.00;63.60;;;;;;6163246;23;20024;-84
2021/12/10 13:04:10;;;;;;;8.18;4.55;;;13.40;82.80;;;;;;6163386;23;20036;-84
2021/12/10 13:06:55;;;;;;;7.65;4.50;;;12.70;84.90;;;;;;6187999;23;20021;-83
2021/12/10 13:09:29;;;;;;;9.77;4.45;;;12.10;88.00;;;;;;6163581;23;20350;-84
2021/12/10 13:12:07;;;;;;;7.03;4.25;;;11.40;93.90;;;;;;6187449;23;20020;-84
2021/12/10 13:14:47;;;;;;;12.10;4.78;;;10.90;95.90;;;;;;6216101;23;20043;-85
2021/12/10 13:17:20;;;;;;;12.27;5.93;;;10.30;97.20;;;;;;6189429;23;20025;-84
2021/12/10 13:19:46;;;;;;;11.25;5.32;;;9.80;98.90;;;;;;6190115;23;20028;-84